createdAt,value
2018-12-18T00:00:31.596Z,4.21
2018-12-18T00:03:00.416Z,4.25
2018-12-18T00:05:35.192Z,4.23
2018-12-18T00:08:10.258Z,4.29
2018-12-18T00:10:44.295Z,4.22
2018-12-18T00:13:13.121Z,4.25
2018-12-18T00:15:41.927Z,4.22
2018-12-18T00:18:10.743Z,4.13
2018-12-18T00:20:39.592Z,4.14
2018-12-18T00:23:08.406Z,4.32
2018-12-18T00:25:37.197Z,4.31
2018-12-18T00:28:06.069Z,4.34
2018-12-18T00:30:34.894Z,4.31
2018-12-18T00:33:03.789Z,4.40
2018-12-18T00:35:32.773Z,4.27
2018-12-18T00:38:01.574Z,4.37
2018-12-18T00:40:30.789Z,4.41
2018-12-18T00:42:59.602Z,4.48
2018-12-18T00:45:28.400Z,4.33
2018-12-18T00:47:57.238Z,4.20
2018-12-18T00:50:26.132Z,4.27
2018-12-18T00:52:54.945Z,4.43
2018-12-18T00:55:23.752Z,4.34
2018-12-18T00:57:52.598Z,4.30
2018-12-18T01:00:21.469Z,4.10
2018-12-18T01:02:50.259Z,4.08
2018-12-18T01:05:19.261Z,4.13
2018-12-18T01:07:53.283Z,4.11
2018-12-18T01:10:18.897Z,4.13
2018-12-18T01:12:47.885Z,4.09
2018-12-18T01:15:16.690Z,3.98
2018-12-18T01:17:45.533Z,4.00
2018-12-18T01:20:14.422Z,3.98
2018-12-18T01:22:43.246Z,3.96
2018-12-18T01:25:12.048Z,4.09
2018-12-18T01:27:40.910Z,4.10
2018-12-18T01:30:09.754Z,4.07
2018-12-18T01:32:38.548Z,3.95
2018-12-18T01:35:07.468Z,3.98
2018-12-18T01:37:36.256Z,3.89
2018-12-18T01:40:05.868Z,3.93
2018-12-18T01:42:34.784Z,3.90
2018-12-18T01:45:03.617Z,3.99
2018-12-18T01:47:32.483Z,4.02
2018-12-18T01:50:01.303Z,3.94
2018-12-18T01:52:30.118Z,3.88
2018-12-18T01:54:58.973Z,3.84
2018-12-18T01:57:27.782Z,3.86
2018-12-18T01:59:56.621Z,3.98
2018-12-18T02:02:25.468Z,3.91
2018-12-18T02:04:54.274Z,3.86
2018-12-18T02:07:23.084Z,3.71
2018-12-18T02:09:52.036Z,3.54
2018-12-18T02:12:20.897Z,3.58
2018-12-18T02:14:49.724Z,3.58
2018-12-18T02:17:18.612Z,3.57
2018-12-18T02:19:47.488Z,3.54
2018-12-18T02:22:16.290Z,3.56
2018-12-18T02:24:45.105Z,3.48
2018-12-18T02:27:13.970Z,3.47
2018-12-18T02:29:42.806Z,3.57
2018-12-18T02:32:11.613Z,3.40
2018-12-18T02:34:41.718Z,3.46
2018-12-18T02:37:10.537Z,3.51
2018-12-18T02:39:39.362Z,3.45
2018-12-18T02:42:08.212Z,3.49
2018-12-18T02:44:37.042Z,3.50
2018-12-18T02:47:05.870Z,3.48
2018-12-18T02:49:34.726Z,3.37
2018-12-18T02:52:03.577Z,3.30
2018-12-18T02:54:32.402Z,3.25
2018-12-18T02:57:01.326Z,3.29
2018-12-18T02:59:30.245Z,3.24
2018-12-18T03:01:59.152Z,3.20
2018-12-18T03:04:28.013Z,3.19
2018-12-18T03:06:56.841Z,3.26
2018-12-18T03:09:25.864Z,3.19
2018-12-18T03:11:54.742Z,3.14
2018-12-18T03:14:23.579Z,3.16
2018-12-18T03:16:52.404Z,3.15
2018-12-18T03:19:22.025Z,3.22
2018-12-18T03:21:50.833Z,3.21
2018-12-18T03:24:19.669Z,3.17
2018-12-18T03:26:48.530Z,3.15
2018-12-18T03:29:17.476Z,3.19
2018-12-18T03:31:50.388Z,3.06
2018-12-18T03:34:19.326Z,3.14
2018-12-18T03:36:48.139Z,3.16
2018-12-18T03:39:17.058Z,3.10
2018-12-18T03:41:46.029Z,3.05
2018-12-18T03:44:14.873Z,2.99
2018-12-18T03:46:44.962Z,2.96
2018-12-18T03:49:13.788Z,3.10
2018-12-18T03:51:42.597Z,3.04
2018-12-18T03:54:11.466Z,3.02
2018-12-18T03:56:40.286Z,3.03
2018-12-18T03:59:09.196Z,3.08
2018-12-18T04:01:38.025Z,3.10
2018-12-18T04:04:06.998Z,3.13
2018-12-18T04:06:35.868Z,3.03
2018-12-18T04:09:07.057Z,3.12
2018-12-18T04:11:40.031Z,2.98
2018-12-18T04:14:08.871Z,3.01
2018-12-18T04:16:37.805Z,3.02
2018-12-18T04:19:06.953Z,3.14
2018-12-18T04:21:35.749Z,3.15
2018-12-18T04:24:04.590Z,3.06
2018-12-18T04:26:33.450Z,3.16
2018-12-18T04:29:02.467Z,3.09
2018-12-18T04:31:31.293Z,3.08
2018-12-18T04:34:00.122Z,3.12
2018-12-18T04:36:28.921Z,3.08
2018-12-18T04:38:57.937Z,3.11
2018-12-18T04:41:26.782Z,3.09
2018-12-18T04:43:55.580Z,3.04
2018-12-18T04:46:24.401Z,3.14
2018-12-18T04:48:58.695Z,3.02
2018-12-18T04:51:27.515Z,2.96
2018-12-18T04:53:56.432Z,3.03
2018-12-18T04:56:25.297Z,3.14
2018-12-18T04:58:54.093Z,3.16
2018-12-18T05:01:22.905Z,3.05
2018-12-18T05:03:51.773Z,3.01
2018-12-18T05:06:20.592Z,3.00
2018-12-18T05:08:49.444Z,2.91
2018-12-18T05:11:18.360Z,2.94
2018-12-18T05:13:47.254Z,2.82
2018-12-18T05:16:16.084Z,2.78
2018-12-18T05:18:44.909Z,2.78
2018-12-18T05:21:13.866Z,2.72
2018-12-18T05:23:42.665Z,2.75
2018-12-18T05:26:11.497Z,2.72
2018-12-18T05:28:41.967Z,2.73
2018-12-18T05:31:10.821Z,2.71
2018-12-18T05:33:39.655Z,2.72
2018-12-18T05:36:08.586Z,2.73
2018-12-18T05:38:37.443Z,2.71
2018-12-18T05:41:06.317Z,2.74
2018-12-18T05:43:35.135Z,2.73
2018-12-18T05:46:03.977Z,2.75
2018-12-18T05:48:32.842Z,2.69
2018-12-18T05:51:01.643Z,2.75
2018-12-18T05:53:30.477Z,2.72
2018-12-18T05:55:59.357Z,2.77
2018-12-18T05:58:28.207Z,2.80
2018-12-18T06:00:57.005Z,2.75
2018-12-18T06:03:25.984Z,2.83
2018-12-18T06:05:54.827Z,2.79
2018-12-18T06:08:23.666Z,2.91
2018-12-18T06:10:53.893Z,2.90
2018-12-18T06:13:22.697Z,2.89
2018-12-18T06:15:51.521Z,2.95
2018-12-18T06:18:20.407Z,2.85
2018-12-18T06:20:49.367Z,2.83
2018-12-18T06:23:18.169Z,2.91
2018-12-18T06:25:47.089Z,2.89
2018-12-18T06:28:15.939Z,2.87
2018-12-18T06:30:44.758Z,2.74
2018-12-18T06:33:13.619Z,2.69
2018-12-18T06:35:42.532Z,2.72
2018-12-18T06:38:11.362Z,2.69
2018-12-18T06:40:41.776Z,2.66
2018-12-18T06:43:10.611Z,2.69
2018-12-18T06:45:39.436Z,2.62
2018-12-18T06:48:08.305Z,2.63
2018-12-18T06:50:37.150Z,2.58
2018-12-18T06:53:06.008Z,2.58
2018-12-18T06:55:34.903Z,2.59
2018-12-18T06:58:03.773Z,2.55
2018-12-18T07:00:32.580Z,2.53
2018-12-18T07:03:01.561Z,2.52
2018-12-18T07:05:30.365Z,2.52
2018-12-18T07:07:59.182Z,2.52
2018-12-18T07:10:28.030Z,2.52
2018-12-18T07:12:56.862Z,2.57
2018-12-18T07:15:25.858Z,2.53
2018-12-18T07:17:54.713Z,2.56
2018-12-18T07:20:23.577Z,2.56
2018-12-18T07:22:52.517Z,2.50
2018-12-18T07:25:21.393Z,2.50
2018-12-18T07:27:50.207Z,2.58
2018-12-18T07:30:19.061Z,2.59
2018-12-18T07:32:47.910Z,2.63
2018-12-18T07:35:23.082Z,2.69
2018-12-18T07:37:47.563Z,2.67
2018-12-18T07:40:16.440Z,2.72
2018-12-18T07:42:45.257Z,2.75
2018-12-18T07:45:14.122Z,2.77
2018-12-18T07:47:42.991Z,2.71
2018-12-18T07:50:11.833Z,2.79
2018-12-18T07:52:40.701Z,2.74
2018-12-18T07:55:09.593Z,2.71
2018-12-18T07:57:38.394Z,2.70
2018-12-18T08:00:07.273Z,2.63
2018-12-18T08:02:36.143Z,2.63
2018-12-18T08:05:05.430Z,2.68
2018-12-18T08:07:34.249Z,2.68
2018-12-18T08:10:03.207Z,2.70
2018-12-18T08:12:32.133Z,2.74
2018-12-18T08:15:01.132Z,2.70
2018-12-18T08:17:30.054Z,2.74
2018-12-18T08:19:58.885Z,2.74
2018-12-18T08:22:28.976Z,2.69
2018-12-18T08:24:57.844Z,2.66
2018-12-18T08:27:26.876Z,2.66
2018-12-18T08:29:55.746Z,2.70
2018-12-18T08:32:24.643Z,2.74
2018-12-18T08:34:53.452Z,2.78
2018-12-18T08:37:22.263Z,2.78
2018-12-18T08:39:51.076Z,2.70
2018-12-18T08:42:20.009Z,2.65
2018-12-18T08:44:48.788Z,2.68
2018-12-18T08:47:17.608Z,2.63
2018-12-18T08:49:46.401Z,2.78
2018-12-18T08:52:15.198Z,2.84
2018-12-18T08:54:44.044Z,2.81
2018-12-18T08:57:12.848Z,2.78
2018-12-18T08:59:41.809Z,2.76
2018-12-18T09:02:10.633Z,2.74
2018-12-18T09:04:39.424Z,2.78
2018-12-18T09:07:08.233Z,2.63
2018-12-18T09:09:37.057Z,2.62
2018-12-18T09:12:07.997Z,2.64
2018-12-18T09:14:38.864Z,2.63
2018-12-18T09:17:08.458Z,2.61
2018-12-18T09:19:37.244Z,2.67
2018-12-18T09:22:06.101Z,2.70
2018-12-18T09:24:34.889Z,2.76
2018-12-18T09:27:03.713Z,2.72
2018-12-18T09:29:33.871Z,2.72
2018-12-18T09:32:02.670Z,2.79
2018-12-18T09:34:32.974Z,2.73
2018-12-18T09:37:01.807Z,2.74
2018-12-18T09:39:35.702Z,2.76
2018-12-18T09:42:09.590Z,2.76
2018-12-18T09:44:38.469Z,2.79
2018-12-18T09:47:07.309Z,2.76
2018-12-18T09:49:36.201Z,2.83
2018-12-18T09:52:05.238Z,2.83
2018-12-18T09:54:34.061Z,2.86
2018-12-18T09:57:02.911Z,2.89
2018-12-18T09:59:33.057Z,2.90
2018-12-18T10:02:03.259Z,2.83
2018-12-18T10:04:32.085Z,2.86
2018-12-18T10:07:00.970Z,2.83
2018-12-18T10:09:29.794Z,2.82
2018-12-18T10:11:58.616Z,2.85
2018-12-18T10:14:27.530Z,2.83
2018-12-18T10:16:56.416Z,2.84
2018-12-18T10:19:25.201Z,2.89
2018-12-18T10:21:54.065Z,2.71
2018-12-18T10:24:23.302Z,2.76
2018-12-18T10:26:52.089Z,2.76
2018-12-18T10:29:20.909Z,2.82
2018-12-18T10:31:49.730Z,2.76
2018-12-18T10:34:18.514Z,2.67
2018-12-18T10:36:47.474Z,2.64
2018-12-18T10:39:16.331Z,2.57
2018-12-18T10:41:45.177Z,2.44
2018-12-18T10:44:15.333Z,2.55
2018-12-18T10:46:44.156Z,2.66
2018-12-18T10:49:12.934Z,2.56
2018-12-18T10:51:41.756Z,2.51
2018-12-18T10:54:10.745Z,2.52
2018-12-18T10:56:39.632Z,2.64
2018-12-18T10:59:08.581Z,2.64
2018-12-18T11:01:42.545Z,2.58
2018-12-18T11:04:11.432Z,2.70
2018-12-18T11:06:40.269Z,2.69
2018-12-18T11:09:10.386Z,2.74
2018-12-18T11:11:39.344Z,2.63
2018-12-18T11:14:08.177Z,2.60
2018-12-18T11:16:37.573Z,2.56
2018-12-18T11:19:06.715Z,2.46
2018-12-18T11:21:35.537Z,2.43
2018-12-18T11:24:04.448Z,2.47
2018-12-18T11:26:33.297Z,2.50
2018-12-18T11:29:02.145Z,2.58
2018-12-18T11:31:32.343Z,2.53
2018-12-18T11:34:01.176Z,2.63
2018-12-18T11:36:30.032Z,2.61
2018-12-18T11:38:58.977Z,2.67
2018-12-18T11:41:27.891Z,2.75
2018-12-18T11:43:56.797Z,2.61
2018-12-18T11:46:25.678Z,2.68
2018-12-18T11:48:54.525Z,2.63
2018-12-18T11:51:23.432Z,2.66
2018-12-18T11:53:52.247Z,2.67
2018-12-18T11:56:21.210Z,2.76
2018-12-18T11:58:51.244Z,2.62
2018-12-18T12:01:20.229Z,2.62
2018-12-18T12:03:49.030Z,2.41
2018-12-18T12:06:22.997Z,2.34
2018-12-18T12:08:48.901Z,2.52
2018-12-18T12:11:17.699Z,2.44
2018-12-18T12:13:46.516Z,2.49
2018-12-18T12:16:16.700Z,2.56
2018-12-18T12:18:45.579Z,2.46
2018-12-18T12:21:14.474Z,2.69
2018-12-18T12:23:43.301Z,2.69
2018-12-18T12:26:17.076Z,2.61
2018-12-18T12:28:47.499Z,2.50
2018-12-18T12:31:16.297Z,2.41
2018-12-18T12:33:45.096Z,2.36
2018-12-18T12:36:15.136Z,2.49
2018-12-18T12:38:43.920Z,2.33
2018-12-18T12:41:12.712Z,2.35
2018-12-18T12:43:43.101Z,2.47
2018-12-18T12:46:12.312Z,2.56
2018-12-18T12:48:48.002Z,2.44
2018-12-18T12:51:16.788Z,2.42
2018-12-18T12:53:45.574Z,2.44
2018-12-18T12:56:14.497Z,2.33
2018-12-18T12:58:43.322Z,2.43
2018-12-18T13:01:12.120Z,2.39
2018-12-18T13:03:40.936Z,2.48
2018-12-18T13:06:09.761Z,2.29
2018-12-18T13:08:38.536Z,2.17
2018-12-18T13:11:07.385Z,2.26
2018-12-18T13:13:36.337Z,2.22
2018-12-18T13:16:05.169Z,2.26
2018-12-18T13:18:33.959Z,2.35
2018-12-18T13:21:02.805Z,2.39
2018-12-18T13:23:31.627Z,2.24
2018-12-18T13:26:00.421Z,2.25
2018-12-18T13:28:29.222Z,2.29
2018-12-18T13:30:58.042Z,2.34
2018-12-18T13:33:26.863Z,2.17
2018-12-18T13:35:55.752Z,2.11
2018-12-18T13:38:26.724Z,2.03
2018-12-18T13:40:55.518Z,2.01
2018-12-18T13:43:24.289Z,2.03
2018-12-18T13:45:55.678Z,1.91
2018-12-18T13:48:24.517Z,1.88
2018-12-18T13:50:53.365Z,2.03
2018-12-18T13:53:22.546Z,2.08
2018-12-18T13:55:51.357Z,1.97
2018-12-18T13:58:20.197Z,2.01
2018-12-18T14:00:49.938Z,1.90
2018-12-18T14:03:18.782Z,1.86
2018-12-18T14:05:47.945Z,1.86
2018-12-18T14:08:17.006Z,1.79
2018-12-18T14:10:45.861Z,1.69
2018-12-18T14:13:14.743Z,1.66
2018-12-18T14:15:43.686Z,1.46
2018-12-18T14:18:12.609Z,1.54
2018-12-18T14:20:41.408Z,1.53
2018-12-18T14:23:10.261Z,1.55
2018-12-18T14:25:39.091Z,1.53
2018-12-18T14:28:07.932Z,1.50
2018-12-18T14:30:36.955Z,1.53
2018-12-18T14:33:06.844Z,1.41
2018-12-18T14:35:35.830Z,1.44
2018-12-18T14:38:04.877Z,1.54
2018-12-18T14:40:33.836Z,1.35
2018-12-18T14:43:02.805Z,1.33
2018-12-18T14:45:31.810Z,1.39
2018-12-18T14:48:00.725Z,1.44
2018-12-18T14:50:29.844Z,1.37
2018-12-18T14:53:00.093Z,1.35
2018-12-18T14:55:29.013Z,1.31
2018-12-18T14:57:58.189Z,1.24
2018-12-18T15:00:27.167Z,1.26
2018-12-18T15:02:56.088Z,1.31
2018-12-18T15:05:25.009Z,1.31
2018-12-18T15:07:54.179Z,1.32
2018-12-18T15:10:23.110Z,1.25
2018-12-18T15:12:52.385Z,1.29
2018-12-18T15:15:21.325Z,1.33
2018-12-18T15:17:50.261Z,1.34
2018-12-18T15:20:19.201Z,1.16
2018-12-18T15:22:48.202Z,1.23
2018-12-18T15:25:17.115Z,1.22
2018-12-18T15:27:46.016Z,1.25
2018-12-18T15:30:14.938Z,1.29
2018-12-18T15:32:44.081Z,1.23
2018-12-18T15:35:13.177Z,1.20
2018-12-18T15:37:42.469Z,1.27
2018-12-18T15:40:11.429Z,1.21
2018-12-18T15:42:40.325Z,1.23
2018-12-18T15:45:09.366Z,1.24
2018-12-18T15:47:38.345Z,1.19
2018-12-18T15:50:08.857Z,1.21
2018-12-18T15:52:37.841Z,1.19
2018-12-18T15:55:08.467Z,1.18
2018-12-18T15:57:37.399Z,1.17
2018-12-18T16:00:07.241Z,1.12
2018-12-18T16:02:36.265Z,1.14
2018-12-18T16:05:05.400Z,1.12
2018-12-18T16:07:34.313Z,1.08
2018-12-18T16:10:03.437Z,1.03
2018-12-18T16:12:32.338Z,1.05
2018-12-18T16:15:01.259Z,1.00
2018-12-18T16:17:31.656Z,0.90
2018-12-18T16:20:00.573Z,0.92
2018-12-18T16:22:29.491Z,0.88
2018-12-18T16:24:58.856Z,0.85
2018-12-18T16:27:27.631Z,0.86
2018-12-18T16:29:56.424Z,0.93
2018-12-18T16:32:25.249Z,0.95
2018-12-18T16:34:54.028Z,0.94
2018-12-18T16:37:23.384Z,0.89
2018-12-18T16:39:52.478Z,0.93
2018-12-18T16:42:21.263Z,0.87
2018-12-18T16:44:50.037Z,0.89
2018-12-18T16:47:20.073Z,0.94
2018-12-18T16:49:49.040Z,0.90
2018-12-18T16:52:17.956Z,0.93
2018-12-18T16:54:46.776Z,0.91
2018-12-18T16:57:15.565Z,0.92
2018-12-18T16:59:44.340Z,0.88
2018-12-18T17:02:14.558Z,0.97
2018-12-18T17:04:44.776Z,0.90
2018-12-18T17:07:13.573Z,0.84
2018-12-18T17:09:42.404Z,0.96
2018-12-18T17:12:11.176Z,0.91
2018-12-18T17:14:39.964Z,0.94
2018-12-18T17:17:08.756Z,0.97
2018-12-18T17:19:37.554Z,0.93
2018-12-18T17:22:06.436Z,0.94
2018-12-18T17:24:35.268Z,0.83
2018-12-18T17:27:04.133Z,0.92
2018-12-18T17:29:33.009Z,0.79
2018-12-18T17:32:01.893Z,0.84
2018-12-18T17:34:30.720Z,0.90
2018-12-18T17:36:59.600Z,0.92
2018-12-18T17:39:29.180Z,0.90
2018-12-18T17:41:58.024Z,0.83
2018-12-18T17:44:26.864Z,0.92
2018-12-18T17:46:55.776Z,0.89
2018-12-18T17:49:24.741Z,0.90
2018-12-18T17:51:53.605Z,0.90
2018-12-18T17:54:23.284Z,0.89
2018-12-18T17:56:52.183Z,0.89
2018-12-18T17:59:21.100Z,0.90
2018-12-18T18:01:49.981Z,0.88
2018-12-18T18:04:18.850Z,0.83
2018-12-18T18:06:47.784Z,0.84
2018-12-18T18:09:16.634Z,0.84
2018-12-18T18:11:45.494Z,0.86
2018-12-18T18:14:14.550Z,0.83
2018-12-18T18:16:43.389Z,0.86
2018-12-18T18:19:12.243Z,0.82
2018-12-18T18:21:42.409Z,0.80
2018-12-18T18:24:11.246Z,0.82
2018-12-18T18:26:40.078Z,0.72
2018-12-18T18:29:10.322Z,0.74
2018-12-18T18:31:39.186Z,0.65
2018-12-18T18:34:08.139Z,0.65
2018-12-18T18:36:36.991Z,0.59
2018-12-18T18:39:08.173Z,0.59
2018-12-18T18:41:37.094Z,0.59
2018-12-18T18:44:06.125Z,0.56
2018-12-18T18:46:34.917Z,0.44
2018-12-18T18:49:03.970Z,0.50
2018-12-18T18:51:32.794Z,0.48
2018-12-18T18:54:01.588Z,0.40
2018-12-18T18:56:30.560Z,0.35
2018-12-18T18:58:59.370Z,0.34
2018-12-18T19:01:28.341Z,0.35
2018-12-18T19:03:57.211Z,0.33
2018-12-18T19:06:26.445Z,0.26
2018-12-18T19:08:55.441Z,0.22
2018-12-18T19:11:24.295Z,0.20
2018-12-18T19:13:53.219Z,0.23
2018-12-18T19:16:22.046Z,0.26
2018-12-18T19:18:50.886Z,0.27
2018-12-18T19:21:19.705Z,0.24
2018-12-18T19:23:48.637Z,0.27
2018-12-18T19:26:17.457Z,0.23
2018-12-18T19:28:50.319Z,0.21
2018-12-18T19:31:18.495Z,0.18
2018-12-18T19:33:47.330Z,0.26
2018-12-18T19:36:16.165Z,0.22
2018-12-18T19:38:45.029Z,0.18
2018-12-18T19:41:13.865Z,0.17
2018-12-18T19:43:44.049Z,0.25
2018-12-18T19:46:12.994Z,0.21
2018-12-18T19:48:42.130Z,0.21
2018-12-18T19:51:11.038Z,0.20
2018-12-18T19:53:39.959Z,0.22
2018-12-18T19:56:10.225Z,0.25
2018-12-18T19:58:39.080Z,0.21
2018-12-18T20:01:07.960Z,0.12
2018-12-18T20:03:36.929Z,0.11
2018-12-18T20:06:05.821Z,0.09
2018-12-18T20:08:34.664Z,0.04
2018-12-18T20:11:03.503Z,-0.02
2018-12-18T20:13:33.629Z,0.01
2018-12-18T20:16:02.504Z,-0.05
2018-12-18T20:18:32.128Z,-0.07
2018-12-18T20:21:02.553Z,-0.09
2018-12-18T20:23:32.680Z,-0.10
2018-12-18T20:26:01.889Z,-0.09
2018-12-18T20:28:30.701Z,-0.08
2018-12-18T20:31:03.047Z,-0.09
2018-12-18T20:33:31.885Z,-0.03
2018-12-18T20:36:00.749Z,-0.12
2018-12-18T20:38:29.556Z,-0.07
2018-12-18T20:40:58.413Z,-0.03
2018-12-18T20:43:27.271Z,-0.12
2018-12-18T20:45:56.296Z,-0.10
2018-12-18T20:48:25.450Z,-0.12
2018-12-18T20:50:54.258Z,-0.19
2018-12-18T20:53:23.394Z,-0.13
2018-12-18T20:55:52.401Z,-0.24
2018-12-18T20:58:21.208Z,-0.31
2018-12-18T21:00:50.029Z,-0.40
2018-12-18T21:03:18.898Z,-0.42
2018-12-18T21:05:47.725Z,-0.50
2018-12-18T21:08:23.183Z,-0.45
2018-12-18T21:10:47.629Z,-0.50
2018-12-18T21:13:21.729Z,-0.61
2018-12-18T21:15:50.584Z,-0.55
2018-12-18T21:18:19.562Z,-0.47
2018-12-18T21:20:48.416Z,-0.41
2018-12-18T21:23:17.341Z,-0.35
2018-12-18T21:25:46.361Z,-0.39
2018-12-18T21:28:15.292Z,-0.37
2018-12-18T21:30:45.380Z,-0.39
2018-12-18T21:33:14.394Z,-0.36
2018-12-18T21:35:43.294Z,-0.45
2018-12-18T21:38:12.209Z,-0.48
2018-12-18T21:40:41.138Z,-0.41
2018-12-18T21:43:09.968Z,-0.55
2018-12-18T21:45:38.871Z,-0.54
2018-12-18T21:48:07.773Z,-0.53
2018-12-18T21:50:36.614Z,-0.61
2018-12-18T21:53:05.479Z,-0.63
2018-12-18T21:55:35.662Z,-0.63
2018-12-18T21:58:04.541Z,-0.66
2018-12-18T22:00:33.434Z,-0.64
2018-12-18T22:03:03.853Z,-0.68
2018-12-18T22:08:14.348Z,-0.71
2018-12-18T22:10:43.166Z,-0.71
2018-12-18T22:13:11.960Z,-0.78
2018-12-18T22:15:40.783Z,-0.70
2018-12-18T22:18:09.577Z,-0.66
2018-12-18T22:20:38.384Z,-0.62
2018-12-18T22:23:07.357Z,-0.58
2018-12-18T22:25:36.152Z,-0.60
2018-12-18T22:28:05.040Z,-0.51
2018-12-18T22:30:33.841Z,-0.50
2018-12-18T22:33:02.641Z,-0.54
2018-12-18T22:35:31.483Z,-0.57
2018-12-18T22:38:00.280Z,-0.49
2018-12-18T22:40:29.101Z,-0.51
2018-12-18T22:42:58.006Z,-0.51
2018-12-18T22:45:26.890Z,-0.54
2018-12-18T22:47:55.766Z,-0.53
2018-12-18T22:50:24.662Z,-0.44
2018-12-18T22:52:53.525Z,-0.53
2018-12-18T22:55:22.398Z,-0.53
2018-12-18T22:57:51.344Z,-0.49
2018-12-18T23:00:25.417Z,-0.46
2018-12-18T23:02:54.345Z,-0.52
2018-12-18T23:05:23.217Z,-0.48
2018-12-18T23:07:52.089Z,-0.48
2018-12-18T23:10:22.291Z,-0.45
2018-12-18T23:12:51.142Z,-0.45
2018-12-18T23:15:20.023Z,-0.39
2018-12-18T23:17:48.907Z,-0.40
2018-12-18T23:20:19.081Z,-0.39
2018-12-18T23:22:47.934Z,-0.43
2018-12-18T23:25:16.808Z,-0.40
2018-12-18T23:27:45.813Z,-0.40
2018-12-18T23:30:14.681Z,-0.34
2018-12-18T23:32:43.534Z,-0.33
2018-12-18T23:35:12.507Z,-0.37
2018-12-18T23:37:41.421Z,-0.35
2018-12-18T23:40:10.308Z,-0.31
2018-12-18T23:42:39.201Z,-0.40
2018-12-18T23:45:08.082Z,-0.40
2018-12-18T23:47:36.979Z,-0.49
2018-12-18T23:50:05.984Z,-0.40
2018-12-18T23:52:34.832Z,-0.43
2018-12-18T23:55:03.713Z,-0.44
2018-12-18T23:57:32.605Z,-0.51
